sensor_id;sensor_type;location;lat;lon;timestamp;pressure;altitude;pressure_sealevel;temperature;humidity
7052;BME280;3567;52.444;13.556;2023-11-21T00:01:37;100384.06;;;7.86;100.00
7052;BME280;3567;52.444;13.556;2023-11-21T00:04:03;100392.22;;;7.66;100.00
7052;BME280;3567;52.444;13.556;2023-11-21T00:06:28;100394.78;;;7.54;100.00
7052;BME280;3567;52.444;13.556;2023-11-21T00:08:55;100400.16;;;7.48;100.00
7052;BME280;3567;52.444;13.556;2023-11-21T00:11:20;100398.56;;;7.40;100.00
7052;BME280;3567;52.444;13.556;2023-11-21T00:13:46;100404.16;;;7.32;100.00
7052;BME280;3567;52.444;13.556;2023-11-21T00:16:11;100410.38;;;7.26;100.00
7052;BME280;3567;52.444;13.556;2023-11-21T00:18:37;100412.84;;;7.21;100.00
7052;BME280;3567;52.444;13.556;2023-11-21T00:21:02;100412.91;;;7.14;100.00
7052;BME280;3567;52.444;13.556;2023-11-21T00:23:28;100412.50;;;7.11;100.00
7052;BME280;3567;52.444;13.556;2023-11-21T00:25:54;100412.91;;;7.07;100.00
7052;BME280;3567;52.444;13.556;2023-11-21T00:28:19;100416.22;;;7.03;100.00
7052;BME280;3567;52.444;13.556;2023-11-21T00:30:45;100419.53;;;6.92;100.00
7052;BME280;3567;52.444;13.556;2023-11-21T00:33:10;100418.78;;;6.85;100.00
7052;BME280;3567;52.444;13.556;2023-11-21T00:35:36;100429.00;;;6.81;100.00
7052;BME280;3567;52.444;13.556;2023-11-21T00:38:01;100432.72;;;6.80;100.00
7052;BME280;3567;52.444;13.556;2023-11-21T00:40:28;100432.75;;;6.73;100.00
7052;BME280;3567;52.444;13.556;2023-11-21T00:42:53;100436.03;;;6.69;100.00
7052;BME280;3567;52.444;13.556;2023-11-21T00:45:19;100431.56;;;6.63;100.00
7052;BME280;3567;52.444;13.556;2023-11-21T00:47:44;100441.19;;;6.57;100.00
7052;BME280;3567;52.444;13.556;2023-11-21T00:50:09;100444.69;;;6.51;100.00
7052;BME280;3567;52.444;13.556;2023-11-21T00:52:35;100451.44;;;6.47;100.00
7052;BME280;3567;52.444;13.556;2023-11-21T00:55:01;100445.34;;;6.40;100.00
7052;BME280;3567;52.444;13.556;2023-11-21T00:57:28;100451.06;;;6.37;100.00
7052;BME280;3567;52.444;13.556;2023-11-21T00:59:53;100451.69;;;6.32;100.00
7052;BME280;3567;52.444;13.556;2023-11-21T01:02:19;100454.78;;;6.29;100.00
7052;BME280;3567;52.444;13.556;2023-11-21T01:04:44;100459.47;;;6.27;100.00
7052;BME280;3567;52.444;13.556;2023-11-21T01:07:10;100463.16;;;6.26;100.00
7052;BME280;3567;52.444;13.556;2023-11-21T01:09:35;100467.66;;;6.25;100.00
7052;BME280;3567;52.444;13.556;2023-11-21T01:12:00;100473.81;;;6.19;100.00
7052;BME280;3567;52.444;13.556;2023-11-21T01:14:26;100474.00;;;6.11;100.00
7052;BME280;3567;52.444;13.556;2023-11-21T01:16:52;100475.03;;;6.10;100.00
7052;BME280;3567;52.444;13.556;2023-11-21T01:19:17;100477.28;;;6.07;100.00
7052;BME280;3567;52.444;13.556;2023-11-21T01:21:42;100488.13;;;6.05;100.00
7052;BME280;3567;52.444;13.556;2023-11-21T01:24:08;100482.81;;;5.98;100.00
7052;BME280;3567;52.444;13.556;2023-11-21T01:26:33;100477.06;;;5.95;100.00
7052;BME280;3567;52.444;13.556;2023-11-21T01:28:59;100483.19;;;5.89;100.00
7052;BME280;3567;52.444;13.556;2023-11-21T01:31:24;100484.81;;;5.90;100.00
7052;BME280;3567;52.444;13.556;2023-11-21T01:33:54;100488.28;;;5.84;100.00
7052;BME280;3567;52.444;13.556;2023-11-21T01:36:20;100489.72;;;5.79;100.00
7052;BME280;3567;52.444;13.556;2023-11-21T01:38:46;100488.09;;;5.78;100.00
7052;BME280;3567;52.444;13.556;2023-11-21T01:41:13;100490.13;;;5.76;100.00
7052;BME280;3567;52.444;13.556;2023-11-21T01:43:38;100498.50;;;5.73;100.00
7052;BME280;3567;52.444;13.556;2023-11-21T01:46:04;100499.53;;;5.72;100.00
7052;BME280;3567;52.444;13.556;2023-11-21T01:48:32;100499.09;;;5.69;100.00
7052;BME280;3567;52.444;13.556;2023-11-21T01:50:58;100500.34;;;5.66;100.00
7052;BME280;3567;52.444;13.556;2023-11-21T01:53:26;100499.09;;;5.62;100.00
7052;BME280;3567;52.444;13.556;2023-11-21T01:55:53;100504.41;;;5.62;100.00
7052;BME280;3567;52.444;13.556;2023-11-21T01:58:19;100508.69;;;5.57;100.00
7052;BME280;3567;52.444;13.556;2023-11-21T02:00:45;100505.41;;;5.48;100.00
7052;BME280;3567;52.444;13.556;2023-11-21T02:03:10;100511.34;;;5.43;100.00
7052;BME280;3567;52.444;13.556;2023-11-21T02:05:36;100509.44;;;5.37;100.00
7052;BME280;3567;52.444;13.556;2023-11-21T02:08:01;100520.50;;;5.34;100.00
7052;BME280;3567;52.444;13.556;2023-11-21T02:10:28;100517.41;;;5.31;100.00
7052;BME280;3567;52.444;13.556;2023-11-21T02:12:54;100517.41;;;5.31;100.00
7052;BME280;3567;52.444;13.556;2023-11-21T02:15:21;100522.28;;;5.27;100.00
7052;BME280;3567;52.444;13.556;2023-11-21T02:17:48;100521.66;;;5.18;100.00
7052;BME280;3567;52.444;13.556;2023-11-21T02:20:17;100525.94;;;5.13;100.00
7052;BME280;3567;52.444;13.556;2023-11-21T02:22:50;100533.69;;;5.14;100.00
7052;BME280;3567;52.444;13.556;2023-11-21T02:25:23;100536.94;;;5.10;100.00
7052;BME280;3567;52.444;13.556;2023-11-21T02:27:48;100538.75;;;5.03;100.00
7052;BME280;3567;52.444;13.556;2023-11-21T02:30:15;100535.25;;;4.95;100.00
7052;BME280;3567;52.444;13.556;2023-11-21T02:32:41;100543.78;;;4.91;100.00
7052;BME280;3567;52.444;13.556;2023-11-21T02:35:08;100550.28;;;4.88;100.00
7052;BME280;3567;52.444;13.556;2023-11-21T02:37:33;100543.13;;;4.82;100.00
7052;BME280;3567;52.444;13.556;2023-11-21T02:40:00;100547.63;;;4.82;100.00
7052;BME280;3567;52.444;13.556;2023-11-21T02:42:25;100548.63;;;4.81;100.00
7052;BME280;3567;52.444;13.556;2023-11-21T02:44:51;100551.28;;;4.81;100.00
7052;BME280;3567;52.444;13.556;2023-11-21T02:47:16;100549.81;;;4.78;100.00
7052;BME280;3567;52.444;13.556;2023-11-21T02:49:42;100556.78;;;4.79;100.00
7052;BME280;3567;52.444;13.556;2023-11-21T02:52:07;100555.53;;;4.75;100.00
7052;BME280;3567;52.444;13.556;2023-11-21T02:54:34;100566.53;;;4.72;100.00
7052;BME280;3567;52.444;13.556;2023-11-21T02:57:01;100565.34;;;4.75;100.00
7052;BME280;3567;52.444;13.556;2023-11-21T02:59:27;100555.09;;;4.71;100.00
7052;BME280;3567;52.444;13.556;2023-11-21T03:01:53;100559.59;;;4.71;100.00
7052;BME280;3567;52.444;13.556;2023-11-21T03:04:18;100552.25;;;4.73;100.00
7052;BME280;3567;52.444;13.556;2023-11-21T03:06:44;100549.41;;;4.75;100.00
7052;BME280;3567;52.444;13.556;2023-11-21T03:09:10;100556.34;;;4.76;100.00
7052;BME280;3567;52.444;13.556;2023-11-21T03:11:37;100563.31;;;4.77;100.00
7052;BME280;3567;52.444;13.556;2023-11-21T03:14:02;100567.34;;;4.72;100.00
7052;BME280;3567;52.444;13.556;2023-11-21T03:16:28;100568.97;;;4.73;100.00
7052;BME280;3567;52.444;13.556;2023-11-21T03:18:54;100565.34;;;4.75;100.00
7052;BME280;3567;52.444;13.556;2023-11-21T03:21:19;100575.94;;;4.75;100.00
7052;BME280;3567;52.444;13.556;2023-11-21T03:23:45;100565.50;;;4.73;100.00
7052;BME280;3567;52.444;13.556;2023-11-21T03:26:13;100579.59;;;4.73;100.00
7052;BME280;3567;52.444;13.556;2023-11-21T03:28:38;100572.66;;;4.72;100.00
7052;BME280;3567;52.444;13.556;2023-11-21T03:31:04;100585.94;;;4.72;100.00
7052;BME280;3567;52.444;13.556;2023-11-21T03:33:31;100587.31;;;4.68;100.00
7052;BME280;3567;52.444;13.556;2023-11-21T03:35:57;100585.50;;;4.69;100.00
7052;BME280;3567;52.444;13.556;2023-11-21T03:38:23;100598.34;;;4.65;100.00
7052;BME280;3567;52.444;13.556;2023-11-21T03:40:48;100598.34;;;4.65;100.00
7052;BME280;3567;52.444;13.556;2023-11-21T03:43:14;100596.69;;;4.64;100.00
7052;BME280;3567;52.444;13.556;2023-11-21T03:45:39;100598.91;;;4.61;100.00
7052;BME280;3567;52.444;13.556;2023-11-21T03:48:06;100598.09;;;4.60;100.00
7052;BME280;3567;52.444;13.556;2023-11-21T03:50:32;100599.47;;;4.56;100.00
7052;BME280;3567;52.444;13.556;2023-11-21T03:52:57;100613.97;;;4.54;100.00
7052;BME280;3567;52.444;13.556;2023-11-21T03:55:22;100617.81;;;4.51;100.00
7052;BME280;3567;52.444;13.556;2023-11-21T03:57:50;100621.47;;;4.50;100.00
7052;BME280;3567;52.444;13.556;2023-11-21T04:00:16;100624.50;;;4.47;100.00
7052;BME280;3567;52.444;13.556;2023-11-21T04:02:42;100630.44;;;4.49;100.00
7052;BME280;3567;52.444;13.556;2023-11-21T04:05:07;100629.19;;;4.45;100.00
7052;BME280;3567;52.444;13.556;2023-11-21T04:07:34;100624.44;;;4.40;100.00
7052;BME280;3567;52.444;13.556;2023-11-21T04:10:00;100623.63;;;4.40;100.00
7052;BME280;3567;52.444;13.556;2023-11-21T04:12:25;100623.38;;;4.35;100.00
7052;BME280;3567;52.444;13.556;2023-11-21T04:14:50;100619.66;;;4.29;100.00
7052;BME280;3567;52.444;13.556;2023-11-21T04:17:18;100626.59;;;4.30;100.00
7052;BME280;3567;52.444;13.556;2023-11-21T04:19:43;100639.03;;;4.30;100.00
7052;BME280;3567;52.444;13.556;2023-11-21T04:22:09;100635.56;;;4.29;100.00
7052;BME280;3567;52.444;13.556;2023-11-21T04:24:34;100639.44;;;4.27;100.00
7052;BME280;3567;52.444;13.556;2023-11-21T04:26:59;100640.00;;;4.22;100.00
7052;BME280;3567;52.444;13.556;2023-11-21T04:29:25;100643.22;;;4.17;100.00
7052;BME280;3567;52.444;13.556;2023-11-21T04:31:50;100646.06;;;4.16;100.00
7052;BME280;3567;52.444;13.556;2023-11-21T04:34:15;100651.28;;;4.09;100.00
7052;BME280;3567;52.444;13.556;2023-11-21T04:36:40;100653.31;;;4.07;100.00
7052;BME280;3567;52.444;13.556;2023-11-21T04:39:06;100658.97;;;4.04;100.00
7052;BME280;3567;52.444;13.556;2023-11-21T04:41:32;100655.06;;;4.00;100.00
7052;BME280;3567;52.444;13.556;2023-11-21T04:43:57;100668.69;;;3.97;100.00
7052;BME280;3567;52.444;13.556;2023-11-21T04:46:23;100665.78;;;3.92;100.00
7052;BME280;3567;52.444;13.556;2023-11-21T04:48:49;100677.38;;;3.91;100.00
7052;BME280;3567;52.444;13.556;2023-11-21T04:51:14;100669.44;;;3.91;100.00
7052;BME280;3567;52.444;13.556;2023-11-21T04:53:39;100677.75;;;3.88;100.00
7052;BME280;3567;52.444;13.556;2023-11-21T04:56:05;100679.75;;;3.86;100.00
7052;BME280;3567;52.444;13.556;2023-11-21T04:58:31;100676.09;;;3.87;100.00
7052;BME280;3567;52.444;13.556;2023-11-21T05:00:57;100678.13;;;3.85;100.00
7052;BME280;3567;52.444;13.556;2023-11-21T05:03:22;100682.63;;;3.84;100.00
7052;BME280;3567;52.444;13.556;2023-11-21T05:05:48;100687.66;;;3.79;100.00
7052;BME280;3567;52.444;13.556;2023-11-21T05:08:14;100690.84;;;3.75;100.00
7052;BME280;3567;52.444;13.556;2023-11-21T05:10:39;100694.94;;;3.77;100.00
7052;BME280;3567;52.444;13.556;2023-11-21T05:13:05;100698.78;;;3.75;100.00
7052;BME280;3567;52.444;13.556;2023-11-21T05:15:35;100703.28;;;3.74;100.00
7052;BME280;3567;52.444;13.556;2023-11-21T05:18:00;100701.44;;;3.75;100.00
7052;BME280;3567;52.444;13.556;2023-11-21T05:20:25;100705.09;;;3.74;100.00
7052;BME280;3567;52.444;13.556;2023-11-21T05:22:51;100715.69;;;3.74;100.00
7052;BME280;3567;52.444;13.556;2023-11-21T05:25:16;100721.00;;;3.74;100.00
7052;BME280;3567;52.444;13.556;2023-11-21T05:27:44;100723.09;;;3.78;100.00
7052;BME280;3567;52.444;13.556;2023-11-21T05:30:10;100722.09;;;3.79;100.00
7052;BME280;3567;52.444;13.556;2023-11-21T05:32:37;100718.63;;;3.79;100.00
7052;BME280;3567;52.444;13.556;2023-11-21T05:35:03;100715.97;;;3.79;100.00
7052;BME280;3567;52.444;13.556;2023-11-21T05:37:28;100721.28;;;3.79;100.00
7052;BME280;3567;52.444;13.556;2023-11-21T05:39:55;100717.81;;;3.78;100.00
7052;BME280;3567;52.444;13.556;2023-11-21T05:42:23;100727.19;;;3.81;100.00
7052;BME280;3567;52.444;13.556;2023-11-21T05:44:49;100729.66;;;3.82;100.00
7052;BME280;3567;52.444;13.556;2023-11-21T05:47:14;100735.78;;;3.83;100.00
7052;BME280;3567;52.444;13.556;2023-11-21T05:49:40;100732.97;;;3.84;100.00
7052;BME280;3567;52.444;13.556;2023-11-21T05:52:05;100744.38;;;3.85;100.00
7052;BME280;3567;52.444;13.556;2023-11-21T05:54:31;100751.31;;;3.86;100.00
7052;BME280;3567;52.444;13.556;2023-11-21T05:56:56;100751.94;;;3.88;100.00
7052;BME280;3567;52.444;13.556;2023-11-21T05:59:22;100757.91;;;3.90;100.00
7052;BME280;3567;52.444;13.556;2023-11-21T06:01:48;100749.13;;;3.89;100.00
7052;BME280;3567;52.444;13.556;2023-11-21T06:04:13;100759.06;;;3.87;100.00
7052;BME280;3567;52.444;13.556;2023-11-21T06:06:39;100759.88;;;3.88;100.00
7052;BME280;3567;52.444;13.556;2023-11-21T06:09:05;100762.53;;;3.88;100.00
7052;BME280;3567;52.444;13.556;2023-11-21T06:11:34;100766.84;;;3.89;100.00
7052;BME280;3567;52.444;13.556;2023-11-21T06:14:00;100776.78;;;3.87;100.00
7052;BME280;3567;52.444;13.556;2023-11-21T06:16:25;100783.72;;;3.88;100.00
7052;BME280;3567;52.444;13.556;2023-11-21T06:18:51;100786.38;;;3.88;100.00
7052;BME280;3567;52.444;13.556;2023-11-21T06:21:16;100784.75;;;3.87;100.00
7052;BME280;3567;52.444;13.556;2023-11-21T06:23:44;100795.72;;;3.84;100.00
7052;BME280;3567;52.444;13.556;2023-11-21T06:26:10;100791.25;;;3.84;100.00
7052;BME280;3567;52.444;13.556;2023-11-21T06:28:35;100797.00;;;3.88;100.00
7052;BME280;3567;52.444;13.556;2023-11-21T06:31:01;100797.81;;;3.88;100.00
7052;BME280;3567;52.444;13.556;2023-11-21T06:33:33;100805.13;;;3.86;100.00
7052;BME280;3567;52.444;13.556;2023-11-21T06:35:58;100812.25;;;3.86;100.00
7052;BME280;3567;52.444;13.556;2023-11-21T06:38:24;100814.09;;;3.85;100.00
7052;BME280;3567;52.444;13.556;2023-11-21T06:40:49;100812.44;;;3.84;100.00
7052;BME280;3567;52.444;13.556;2023-11-21T06:43:14;100816.94;;;3.84;100.00
7052;BME280;3567;52.444;13.556;2023-11-21T06:45:40;100824.88;;;3.84;100.00
7052;BME280;3567;52.444;13.556;2023-11-21T06:48:05;100828.34;;;3.84;100.00
7052;BME280;3567;52.444;13.556;2023-11-21T06:50:31;100833.66;;;3.84;100.00
7052;BME280;3567;52.444;13.556;2023-11-21T06:52:56;100833.66;;;3.84;100.00
7052;BME280;3567;52.444;13.556;2023-11-21T06:55:22;100833.66;;;3.84;100.00
7052;BME280;3567;52.444;13.556;2023-11-21T06:57:47;100834.47;;;3.85;100.00
7052;BME280;3567;52.444;13.556;2023-11-21T07:00:15;100834.47;;;3.85;100.00
7052;BME280;3567;52.444;13.556;2023-11-21T07:02:43;100845.69;;;3.87;100.00
7052;BME280;3567;52.444;13.556;2023-11-21T07:05:09;100843.03;;;3.87;100.00
7052;BME280;3567;52.444;13.556;2023-11-21T07:07:34;100841.59;;;3.84;100.00
7052;BME280;3567;52.444;13.556;2023-11-21T07:10:01;100843.72;;;3.89;100.00
7052;BME280;3567;52.444;13.556;2023-11-21T07:12:29;100843.03;;;3.87;100.00
7052;BME280;3567;52.444;13.556;2023-11-21T07:14:55;100844.41;;;3.83;100.00
7052;BME280;3567;52.444;13.556;2023-11-21T07:17:20;100856.00;;;3.82;100.00
7052;BME280;3567;52.444;13.556;2023-11-21T07:19:48;100859.31;;;3.84;100.00
7052;BME280;3567;52.444;13.556;2023-11-21T07:22:14;100856.69;;;3.84;100.00
7052;BME280;3567;52.444;13.556;2023-11-21T07:24:40;100857.66;;;3.83;100.00
7052;BME280;3567;52.444;13.556;2023-11-21T07:27:05;100859.69;;;3.81;100.00
7052;BME280;3567;52.444;13.556;2023-11-21T07:29:31;100868.97;;;3.77;100.00
7052;BME280;3567;52.444;13.556;2023-11-21T07:31:56;100871.63;;;3.77;100.00
7052;BME280;3567;52.444;13.556;2023-11-21T07:34:22;100871.28;;;3.80;100.00
7052;BME280;3567;52.444;13.556;2023-11-21T07:36:47;100872.00;;;3.74;100.00
7052;BME280;3567;52.444;13.556;2023-11-21T07:39:12;100876.22;;;3.68;100.00
7052;BME280;3567;52.444;13.556;2023-11-21T07:41:38;100875.91;;;3.63;100.00
7052;BME280;3567;52.444;13.556;2023-11-21T07:44:10;100877.75;;;3.62;100.00
7052;BME280;3567;52.444;13.556;2023-11-21T07:46:35;100880.09;;;3.57;100.00
7052;BME280;3567;52.444;13.556;2023-11-21T07:49:00;100874.53;;;3.52;100.00
7052;BME280;3567;52.444;13.556;2023-11-21T07:51:26;100876.34;;;3.52;100.00
7052;BME280;3567;52.444;13.556;2023-11-21T07:53:51;100881.00;;;3.50;100.00
7052;BME280;3567;52.444;13.556;2023-11-21T07:56:17;100886.75;;;3.53;100.00
7052;BME280;3567;52.444;13.556;2023-11-21T07:58:43;100890.69;;;3.57;100.00
7052;BME280;3567;52.444;13.556;2023-11-21T08:01:09;100895.63;;;3.60;100.00
7052;BME280;3567;52.444;13.556;2023-11-21T08:03:35;100895.81;;;3.59;100.00
7052;BME280;3567;52.444;13.556;2023-11-21T08:06:00;100903.88;;;3.65;100.00
7052;BME280;3567;52.444;13.556;2023-11-21T08:08:27;100902.84;;;3.66;100.00
7052;BME280;3567;52.444;13.556;2023-11-21T08:10:53;100910.47;;;3.70;100.00
7052;BME280;3567;52.444;13.556;2023-11-21T08:13:27;100913.09;;;3.70;100.00
7052;BME280;3567;52.444;13.556;2023-11-21T08:15:54;100919.41;;;3.68;100.00
7052;BME280;3567;52.444;13.556;2023-11-21T08:18:19;100920.41;;;3.67;100.00
7052;BME280;3567;52.444;13.556;2023-11-21T08:20:45;100914.28;;;3.67;100.00
7052;BME280;3567;52.444;13.556;2023-11-21T08:23:14;100915.81;;;3.61;100.00
7052;BME280;3567;52.444;13.556;2023-11-21T08:25:41;100924.03;;;3.66;100.00
7052;BME280;3567;52.444;13.556;2023-11-21T08:28:07;100920.41;;;3.67;100.00
7052;BME280;3567;52.444;13.556;2023-11-21T08:30:32;100923.75;;;3.61;100.00
7052;BME280;3567;52.444;13.556;2023-11-21T08:32:58;100926.25;;;3.63;100.00
7052;BME280;3567;52.444;13.556;2023-11-21T08:35:26;100928.91;;;3.63;100.00
7052;BME280;3567;52.444;13.556;2023-11-21T08:37:52;100926.41;;;3.61;100.00
7052;BME280;3567;52.444;13.556;2023-11-21T08:40:20;100926.78;;;3.58;100.00
7052;BME280;3567;52.444;13.556;2023-11-21T08:42:46;100932.38;;;3.63;100.00
7052;BME280;3567;52.444;13.556;2023-11-21T08:45:12;100937.28;;;3.66;100.00
7052;BME280;3567;52.444;13.556;2023-11-21T08:47:39;100941.44;;;3.69;100.00
7052;BME280;3567;52.444;13.556;2023-11-21T08:50:07;100945.81;;;3.77;100.00
7052;BME280;3567;52.444;13.556;2023-11-21T08:52:36;100951.13;;;3.77;100.00
7052;BME280;3567;52.444;13.556;2023-11-21T08:55:02;100951.94;;;3.77;100.00
7052;BME280;3567;52.444;13.556;2023-11-21T08:57:33;100949.91;;;3.64;100.00
7052;BME280;3567;52.444;13.556;2023-11-21T08:59:58;100955.69;;;3.68;100.00
7052;BME280;3567;52.444;13.556;2023-11-21T09:02:27;100958.78;;;3.72;100.00
7052;BME280;3567;52.444;13.556;2023-11-21T09:04:52;100965.03;;;3.79;100.00
7052;BME280;3567;52.444;13.556;2023-11-21T09:07:19;100970.44;;;3.85;100.00
7052;BME280;3567;52.444;13.556;2023-11-21T09:09:46;100961.94;;;3.90;100.00
7052;BME280;3567;52.444;13.556;2023-11-21T09:12:11;100972.84;;;3.95;100.00
7052;BME280;3567;52.444;13.556;2023-11-21T09:14:37;100975.84;;;3.92;100.00
7052;BME280;3567;52.444;13.556;2023-11-21T09:17:03;100978.47;;;3.92;100.00
7052;BME280;3567;52.444;13.556;2023-11-21T09:19:28;100989.63;;;3.87;100.00
7052;BME280;3567;52.444;13.556;2023-11-21T09:21:54;100986.03;;;3.80;100.00
7052;BME280;3567;52.444;13.556;2023-11-21T09:24:19;100989.16;;;3.84;100.00
7052;BME280;3567;52.444;13.556;2023-11-21T09:26:44;101001.47;;;3.77;100.00
7052;BME280;3567;52.444;13.556;2023-11-21T09:29:10;101002.00;;;3.72;100.00
7052;BME280;3567;52.444;13.556;2023-11-21T09:31:36;101006.66;;;3.70;100.00
7052;BME280;3567;52.444;13.556;2023-11-21T09:34:01;101010.59;;;3.74;100.00
7052;BME280;3567;52.444;13.556;2023-11-21T09:36:27;101006.47;;;3.72;100.00
7052;BME280;3567;52.444;13.556;2023-11-21T09:38:55;101012.13;;;3.68;100.00
7052;BME280;3567;52.444;13.556;2023-11-21T09:41:36;101017.59;;;3.67;100.00
7052;BME280;3567;52.444;13.556;2023-11-21T09:44:08;101020.41;;;3.65;100.00
7052;BME280;3567;52.444;13.556;2023-11-21T09:46:37;101028.06;;;3.60;100.00
7052;BME280;3567;52.444;13.556;2023-11-21T09:49:08;101020.84;;;3.54;100.00
7052;BME280;3567;52.444;13.556;2023-11-21T09:51:44;101022.13;;;3.58;100.00
7052;BME280;3567;52.444;13.556;2023-11-21T09:54:10;101021.13;;;3.59;100.00
7052;BME280;3567;52.444;13.556;2023-11-21T09:56:37;101027.25;;;3.60;100.00
7052;BME280;3567;52.444;13.556;2023-11-21T09:59:03;101029.25;;;3.58;100.00
7052;BME280;3567;52.444;13.556;2023-11-21T10:01:32;101035.41;;;3.50;100.00
7052;BME280;3567;52.444;13.556;2023-11-21T10:03:58;101042.72;;;3.48;100.00
7052;BME280;3567;52.444;13.556;2023-11-21T10:06:26;101044.84;;;3.53;100.00
7052;BME280;3567;52.444;13.556;2023-11-21T10:08:53;101040.50;;;3.60;100.00
7052;BME280;3567;52.444;13.556;2023-11-21T10:11:23;101046.91;;;3.65;100.00
7052;BME280;3567;52.444;13.556;2023-11-21T10:13:52;101037.63;;;3.70;100.00
7052;BME280;3567;52.444;13.556;2023-11-21T10:16:19;101040.47;;;3.68;100.00
7052;BME280;3567;52.444;13.556;2023-11-21T10:18:52;101041.72;;;3.72;100.00
7052;BME280;3567;52.444;13.556;2023-11-21T10:21:18;101037.63;;;3.70;100.00
7052;BME280;3567;52.444;13.556;2023-11-21T10:23:43;101037.63;;;3.70;100.00
7052;BME280;3567;52.444;13.556;2023-11-21T10:26:12;101042.41;;;3.74;100.00
7052;BME280;3567;52.444;13.556;2023-11-21T10:28:55;101052.63;;;3.77;100.00
7052;BME280;3567;52.444;13.556;2023-11-21T10:31:21;101052.22;;;3.65;100.00
7052;BME280;3567;52.444;13.556;2023-11-21T10:33:48;101055.03;;;3.64;100.00
7052;BME280;3567;52.444;13.556;2023-11-21T10:36:24;101046.31;;;3.55;100.00
7052;BME280;3567;52.444;13.556;2023-11-21T10:38:50;101054.88;;;3.65;100.00
7052;BME280;3567;52.444;13.556;2023-11-21T10:41:18;101052.22;;;3.65;100.00
7052;BME280;3567;52.444;13.556;2023-11-21T10:43:43;101058.50;;;3.64;100.00
7052;BME280;3567;52.444;13.556;2023-11-21T10:46:09;101056.56;;;3.58;100.00
7052;BME280;3567;52.444;13.556;2023-11-21T10:48:35;101060.22;;;3.57;100.00
7052;BME280;3567;52.444;13.556;2023-11-21T10:51:06;101076.44;;;3.54;100.00
7052;BME280;3567;52.444;13.556;2023-11-21T10:53:32;101075.03;;;3.44;100.00
7052;BME280;3567;52.444;13.556;2023-11-21T10:56:06;101076.66;;;3.45;100.00
7052;BME280;3567;52.444;13.556;2023-11-21T10:58:34;101070.06;;;3.40;100.00
7052;BME280;3567;52.444;13.556;2023-11-21T11:01:01;101075.03;;;3.44;100.00
7052;BME280;3567;52.444;13.556;2023-11-21T11:03:29;101068.72;;;3.45;100.00
7052;BME280;3567;52.444;13.556;2023-11-21T11:05:55;101074.00;;;3.45;100.00
7052;BME280;3567;52.444;13.556;2023-11-21T11:08:21;101079.50;;;3.43;100.00
7052;BME280;3567;52.444;13.556;2023-11-21T11:10:51;101079.50;;;3.43;100.00
7052;BME280;3567;52.444;13.556;2023-11-21T11:13:18;101086.94;;;3.48;100.00
7052;BME280;3567;52.444;13.556;2023-11-21T11:15:47;101087.25;;;3.45;100.00
7052;BME280;3567;52.444;13.556;2023-11-21T11:18:14;101088.44;;;3.42;100.00
7052;BME280;3567;52.444;13.556;2023-11-21T11:20:42;101087.75;;;3.48;100.00
7052;BME280;3567;52.444;13.556;2023-11-21T11:28:53;101095.03;;;3.46;100.00
7052;BME280;3567;52.444;13.556;2023-11-21T11:34:48;101103.03;;;3.38;100.00
7052;BME280;3567;52.444;13.556;2023-11-21T11:37:16;101112.97;;;3.36;100.00
7052;BME280;3567;52.444;13.556;2023-11-21T11:39:42;101116.13;;;3.31;100.00
7052;BME280;3567;52.444;13.556;2023-11-21T11:42:15;101124.91;;;3.32;100.00
7052;BME280;3567;52.444;13.556;2023-11-21T11:47:28;101130.88;;;3.26;100.00
7052;BME280;3567;52.444;13.556;2023-11-21T11:50:07;101130.69;;;3.27;100.00
7052;BME280;3567;52.444;13.556;2023-11-21T11:55:08;101136.19;;;3.26;100.00
7052;BME280;3567;52.444;13.556;2023-11-21T11:57:38;101138.47;;;3.29;100.00
7052;BME280;3567;52.444;13.556;2023-11-21T12:02:42;101152.38;;;3.23;100.00
7052;BME280;3567;52.444;13.556;2023-11-21T12:05:15;101152.38;;;3.23;100.00
7052;BME280;3567;52.444;13.556;2023-11-21T12:07:51;101158.31;;;3.25;100.00
7052;BME280;3567;52.444;13.556;2023-11-21T12:10:20;101160.31;;;3.23;100.00
7052;BME280;3567;52.444;13.556;2023-11-21T12:12:51;101160.16;;;3.24;100.00
7052;BME280;3567;52.444;13.556;2023-11-21T12:15:20;101165.28;;;3.26;100.00
7052;BME280;3567;52.444;13.556;2023-11-21T12:17:46;101172.25;;;3.27;100.00
7052;BME280;3567;52.444;13.556;2023-11-21T12:20:13;101173.06;;;3.27;100.00
7052;BME280;3567;52.444;13.556;2023-11-21T12:22:59;101179.50;;;3.33;100.00
7052;BME280;3567;52.444;13.556;2023-11-21T12:25:31;101186.25;;;3.35;100.00
7052;BME280;3567;52.444;13.556;2023-11-21T12:27:58;101179.16;;;3.36;100.00
7052;BME280;3567;52.444;13.556;2023-11-21T12:30:25;101176.34;;;3.37;100.00
7052;BME280;3567;52.444;13.556;2023-11-21T12:32:54;101191.38;;;3.45;100.00
7052;BME280;3567;52.444;13.556;2023-11-21T12:35:31;101197.84;;;3.42;100.00
7052;BME280;3567;52.444;13.556;2023-11-21T12:37:59;101199.81;;;3.40;100.00
7052;BME280;3567;52.444;13.556;2023-11-21T12:40:25;101206.13;;;3.39;100.00
7052;BME280;3567;52.444;13.556;2023-11-21T12:42:52;101199.66;;;3.42;100.00
7052;BME280;3567;52.444;13.556;2023-11-21T12:45:20;101204.59;;;3.45;100.00
7052;BME280;3567;52.444;13.556;2023-11-21T12:47:47;101202.78;;;3.46;100.00
7052;BME280;3567;52.444;13.556;2023-11-21T12:50:15;101218.03;;;3.44;100.00
7052;BME280;3567;52.444;13.556;2023-11-21T12:52:42;101207.94;;;3.39;100.00
7052;BME280;3567;52.444;13.556;2023-11-21T12:55:09;101208.94;;;3.38;100.00
7052;BME280;3567;52.444;13.556;2023-11-21T12:57:35;101202.31;;;3.34;100.00
7052;BME280;3567;52.444;13.556;2023-11-21T13:00:04;101208.31;;;3.28;100.00
7052;BME280;3567;52.444;13.556;2023-11-21T13:02:37;101214.78;;;3.25;100.00
7052;BME280;3567;52.444;13.556;2023-11-21T13:05:03;101215.94;;;3.23;100.00
7052;BME280;3567;52.444;13.556;2023-11-21T13:07:41;101221.22;;;3.23;100.00
7052;BME280;3567;52.444;13.556;2023-11-21T13:10:12;101224.53;;;3.17;100.00
7052;BME280;3567;52.444;13.556;2023-11-21T13:12:43;101230.34;;;3.12;100.00
7052;BME280;3567;52.444;13.556;2023-11-21T13:15:11;101236.44;;;3.12;100.00